Time;durP1;ratioP1;P1;durP2;ratioP2;P2;SDS_P1;SDS_P2;PMS_P1;PMS_P2;Temp;Humidity;BMP_temperature;BMP_pressure;BME280_temperature;BME280_humidity;BME280_pressure;Samples;Min_cycle;Max_cycle;Signal;HPM_P1;HPM_P2
2022/09/07 00:02:21;;;;;;;22.42;4.85;;;;;;;17.93;76.72;96192.38;5051361;28;20450;-75
2022/09/07 00:04:47;;;;;;;21.48;4.30;;;;;;;17.87;77.31;96188.34;5052353;28;20041;-76
2022/09/07 00:07:14;;;;;;;19.60;3.92;;;;;;;17.93;77.56;96186.06;5051925;28;20052;-76
2022/09/07 00:09:40;;;;;;;23.30;4.28;;;;;;;17.95;77.49;96184.50;5052210;28;20048;-76
2022/09/07 00:12:07;;;;;;;20.85;4.13;;;;;;;18.00;77.64;96186.97;5051462;28;20064;-77
2022/09/07 00:14:34;;;;;;;15.20;3.15;;;;;;;17.96;77.48;96183.38;5052024;28;20065;-76
2022/09/07 00:17:00;;;;;;;25.05;4.47;;;;;;;17.97;77.20;96182.19;5052040;28;20055;-77
2022/09/07 00:19:28;;;;;;;16.83;3.83;;;;;;;17.82;77.72;96174.88;5051223;28;20048;-76
2022/09/07 00:21:55;;;;;;;39.50;5.75;;;;;;;17.80;77.96;96168.94;5047206;28;20060;-75
2022/09/07 00:24:21;;;;;;;65.93;7.63;;;;;;;17.87;78.14;96171.81;5028829;28;20542;-76
2022/09/07 00:26:48;;;;;;;41.20;5.45;;;;;;;17.89;78.29;96169.47;5041352;28;20499;-76
2022/09/07 00:29:14;;;;;;;21.10;4.15;;;;;;;17.82;78.17;96169.38;5051302;28;20052;-76
2022/09/07 00:31:41;;;;;;;22.85;3.88;;;;;;;17.89;78.61;96161.22;5050888;28;20064;-76
2022/09/07 00:34:07;;;;;;;29.42;4.53;;;;;;;17.86;78.12;96163.94;5051231;28;20045;-76
2022/09/07 00:36:35;;;;;;;26.45;4.05;;;;;;;17.70;78.02;96162.06;5051624;28;20063;-76
2022/09/07 00:39:01;;;;;;;13.70;3.22;;;;;;;17.41;79.63;96160.00;5050937;28;20045;-76
2022/09/07 00:41:28;;;;;;;31.77;5.30;;;;;;;17.36;80.43;96157.53;5051242;28;20049;-76
2022/09/07 00:43:56;;;;;;;16.35;3.80;;;;;;;17.29;81.22;96158.22;5051329;28;20048;-76
2022/09/07 00:46:24;;;;;;;25.20;4.57;;;;;;;17.41;80.62;96163.53;5050695;28;20045;-76
2022/09/07 00:48:56;;;;;;;17.77;3.85;;;;;;;17.55;80.26;96165.75;5051011;28;20048;-76
2022/09/07 00:51:28;;;;;;;25.75;4.80;;;;;;;17.56;79.50;96166.53;5050888;28;20048;-76
2022/09/07 00:54:01;;;;;;;17.27;3.92;;;;;;;17.31;80.70;96161.41;5032323;28;20041;-76
2022/09/07 00:56:33;;;;;;;24.43;4.73;;;;;;;17.14;81.72;96164.63;5033012;28;20503;-76
2022/09/07 00:58:59;;;;;;;21.33;4.47;;;;;;;17.27;81.28;96165.25;5051100;28;20287;-77
2022/09/07 01:01:26;;;;;;;24.30;4.70;;;;;;;17.38;81.49;96161.53;5050531;28;20534;-76
2022/09/07 01:03:57;;;;;;;16.98;4.55;;;;;;;17.30;81.54;96161.78;5050888;28;20068;-76
2022/09/07 01:06:26;;;;;;;22.35;4.82;;;;;;;17.24;81.66;96164.03;5050463;28;20036;-76
2022/09/07 01:08:56;;;;;;;27.33;5.10;;;;;;;17.18;81.82;96169.03;5051094;28;20045;-76
2022/09/07 01:11:24;;;;;;;16.60;3.97;;;;;;;17.26;81.76;96169.94;5050602;28;20045;-76
2022/09/07 01:13:52;;;;;;;23.60;4.68;;;;;;;17.33;81.51;96161.84;5049540;28;20040;-75
2022/09/07 01:16:32;;;;;;;22.10;4.68;;;;;;;17.29;81.76;96163.72;5049873;28;20056;-76
2022/09/07 01:19:16;;;;;;;24.83;4.40;;;;;;;17.40;81.56;96164.72;5050798;28;20052;-77
2022/09/07 01:21:58;;;;;;;30.17;5.00;;;;;;;17.53;81.84;96167.28;5049730;28;20037;-76
2022/09/07 01:24:48;;;;;;;22.50;4.55;;;;;;;17.57;81.79;96162.63;5030317;28;20455;-76
2022/09/07 01:27:49;;;;;;;17.23;3.80;;;;;;;17.55;81.67;96157.50;5046788;28;20052;-75
2022/09/07 01:30:17;;;;;;;21.85;4.28;;;;;;;17.58;81.57;96161.47;5049767;28;20041;-76
2022/09/07 01:32:58;;;;;;;35.75;5.60;;;;;;;17.70;81.29;96164.03;5049655;28;20060;-75
2022/09/07 01:35:36;;;;;;;29.40;5.10;;;;;;;17.59;81.35;96163.03;5049100;28;20045;-76
2022/09/07 01:38:09;;;;;;;21.35;4.15;;;;;;;17.58;81.24;96165.00;5049999;28;20049;-76
2022/09/07 01:40:45;;;;;;;22.52;4.30;;;;;;;17.65;80.95;96178.13;5050638;28;20049;-76
2022/09/07 01:43:19;;;;;;;26.55;4.75;;;;;;;17.72;80.87;96176.28;5049641;28;20057;-76
2022/09/07 01:45:47;;;;;;;19.52;3.97;;;;;;;17.75;80.79;96169.25;5050139;28;20053;-76
2022/09/07 01:48:17;;;;;;;25.63;4.20;;;;;;;17.79;80.83;96169.31;5049899;28;20522;-76
2022/09/07 01:50:49;;;;;;;16.92;4.57;;;;;;;17.70;80.79;96166.78;5050038;28;20696;-76
2022/09/07 01:53:18;;;;;;;19.42;4.30;;;;;;;17.77;80.84;96164.16;5049173;28;20056;-76
2022/09/07 01:55:49;;;;;;;24.90;4.90;;;;;;;17.83;80.76;96170.16;5049991;28;20037;-76
2022/09/07 01:58:23;;;;;;;24.80;4.57;;;;;;;17.88;80.81;96176.16;5049300;28;20053;-76
2022/09/07 02:00:54;;;;;;;29.00;4.80;;;;;;;17.88;80.95;96183.63;5050083;28;20048;-76
2022/09/07 02:03:28;;;;;;;25.08;4.60;;;;;;;17.81;80.85;96195.31;5049339;28;20048;-76
2022/09/07 02:06:00;;;;;;;26.33;4.72;;;;;;;17.82;81.03;96196.91;5049970;28;20049;-76
2022/09/07 02:08:32;;;;;;;23.65;4.60;;;;;;;17.68;81.40;96196.63;5049471;28;20052;-77
2022/09/07 02:11:02;;;;;;;20.55;4.30;;;;;;;17.77;81.11;96188.97;5049844;28;20076;-76
2022/09/07 02:13:35;;;;;;;22.95;4.32;;;;;;;17.83;81.14;96178.44;5049434;28;20033;-76
2022/09/07 02:16:07;;;;;;;28.65;5.00;;;;;;;17.87;81.53;96182.81;5048312;28;20048;-76
2022/09/07 02:18:37;;;;;;;19.92;4.05;;;;;;;17.88;81.76;96178.13;5049724;28;20057;-76
2022/09/07 02:21:07;;;;;;;31.60;4.78;;;;;;;17.92;81.74;96181.72;5049120;28;20083;-76
2022/09/07 02:23:39;;;;;;;18.20;3.97;;;;;;;17.94;81.78;96188.44;5048579;28;20049;-76
2022/09/07 02:26:10;;;;;;;24.17;4.75;;;;;;;17.97;81.28;96187.72;5049075;28;20385;-76
2022/09/07 02:28:39;;;;;;;19.75;4.32;;;;;;;17.94;81.56;96185.69;5049647;28;20078;-76
2022/09/07 02:31:07;;;;;;;25.80;5.38;;;;;;;17.94;81.67;96182.94;5048928;28;20041;-77
2022/09/07 02:33:34;;;;;;;23.30;4.68;;;;;;;17.99;81.95;96184.59;5049386;28;20408;-76
2022/09/07 02:36:03;;;;;;;41.75;6.35;;;;;;;17.95;81.59;96187.28;5049134;28;20049;-76
2022/09/07 02:38:29;;;;;;;20.77;4.03;;;;;;;17.92;81.65;96185.28;5049064;28;20045;-76
2022/09/07 02:40:59;;;;;;;22.73;4.38;;;;;;;17.94;81.77;96182.13;5049426;28;20047;-76
2022/09/07 02:43:28;;;;;;;19.15;4.18;;;;;;;17.96;81.96;96177.88;5048884;28;20045;-75
2022/09/07 02:46:11;;;;;;;26.38;4.20;;;;;;;17.97;81.98;96186.91;5049395;28;20454;-75
2022/09/07 02:48:47;;;;;;;23.67;4.28;;;;;;;17.96;82.04;96186.13;5049173;28;20052;-75
2022/09/07 02:51:20;;;;;;;20.60;4.35;;;;;;;17.97;81.79;96181.41;5048877;28;20049;-76
2022/09/07 02:54:20;;;;;;;28.17;5.25;;;;;;;17.98;82.08;96178.28;5048434;28;20041;-76
2022/09/07 02:56:58;;;;;;;21.40;4.65;;;;;;;17.94;82.25;96176.63;5049128;28;20075;-75
2022/09/07 02:59:45;;;;;;;26.23;5.30;;;;;;;17.93;82.32;96180.56;5048653;28;20045;-77
2022/09/07 03:02:21;;;;;;;30.10;5.15;;;;;;;17.88;82.17;96178.91;5048203;28;20045;-76
2022/09/07 03:04:54;;;;;;;23.20;4.47;;;;;;;17.94;81.84;96182.13;5049107;28;20049;-76
2022/09/07 03:07:26;;;;;;;28.25;5.82;;;;;;;17.90;82.10;96173.81;5046954;28;20049;-76
2022/09/07 03:09:56;;;;;;;16.23;4.70;;;;;;;17.97;81.83;96175.91;5048900;28;20049;-76
2022/09/07 03:12:22;;;;;;;19.52;4.72;;;;;;;17.98;81.77;96172.78;5048002;28;20534;-76
2022/09/07 03:14:49;;;;;;;24.13;5.70;;;;;;;17.72;82.38;96164.44;5049147;28;20515;-76
2022/09/07 03:17:17;;;;;;;19.23;5.25;;;;;;;17.79;82.41;96158.28;5048678;28;20049;-75
2022/09/07 03:19:43;;;;;;;18.08;4.28;;;;;;;17.84;82.00;96167.03;5049277;28;20041;-75
2022/09/07 03:22:10;;;;;;;23.27;4.97;;;;;;;17.83;82.14;96159.94;5044277;28;20049;-75
2022/09/07 03:24:36;;;;;;;26.20;5.18;;;;;;;17.84;81.98;96156.00;5028939;28;20045;-75
2022/09/07 03:27:03;;;;;;;19.33;4.80;;;;;;;17.82;82.26;96157.56;5043586;28;20106;-74
2022/09/07 03:29:29;;;;;;;29.95;5.40;;;;;;;17.84;82.41;96153.25;5048890;28;20049;-75
2022/09/07 03:31:56;;;;;;;24.45;4.75;;;;;;;17.74;82.86;96156.63;5048298;28;20072;-76
2022/09/07 03:34:24;;;;;;;21.33;4.88;;;;;;;17.62;83.24;96154.84;5048456;28;20052;-75
2022/09/07 03:36:50;;;;;;;30.05;7.45;;;;;;;17.55;83.63;96159.47;5048941;28;20045;-75
2022/09/07 03:39:19;;;;;;;20.67;4.88;;;;;;;17.47;84.08;96162.06;5052004;28;20041;-74
2022/09/07 03:41:46;;;;;;;20.98;4.65;;;;;;;17.54;83.69;96157.84;5052365;28;20499;-75
2022/09/07 03:44:12;;;;;;;21.33;4.78;;;;;;;17.55;83.67;96159.47;5051860;28;20059;-75
2022/09/07 03:46:39;;;;;;;45.45;6.28;;;;;;;17.58;83.40;96159.50;5051781;28;20048;-75
2022/09/07 03:49:05;;;;;;;24.95;5.40;;;;;;;17.55;83.75;96171.25;5051726;28;20045;-75
2022/09/07 03:51:33;;;;;;;23.00;5.07;;;;;;;17.57;83.71;96159.88;5052105;28;20049;-75
2022/09/07 03:54:00;;;;;;;33.92;5.80;;;;;;;17.52;83.55;96154.66;5032941;28;20053;-75
2022/09/07 03:56:26;;;;;;;22.63;4.72;;;;;;;17.57;83.60;96157.13;5042033;28;20072;-74
2022/09/07 03:58:54;;;;;;;17.70;4.28;;;;;;;17.60;83.55;96162.69;5052056;28;20446;-75
2022/09/07 04:01:23;;;;;;;16.20;4.50;;;;;;;17.51;84.09;96153.09;5051712;28;20663;-75
2022/09/07 04:03:50;;;;;;;21.02;4.70;;;;;;;17.53;84.24;96170.03;5051887;28;20052;-76
2022/09/07 04:06:17;;;;;;;23.75;5.63;;;;;;;17.61;83.81;96177.25;5051473;28;20041;-75
2022/09/07 04:08:45;;;;;;;19.52;4.85;;;;;;;17.69;83.09;96189.97;5051692;28;20086;-75
2022/09/07 04:11:14;;;;;;;22.70;5.05;;;;;;;17.48;83.36;96198.66;5051020;28;20049;-75
2022/09/07 04:13:41;;;;;;;19.30;4.68;;;;;;;17.39;84.04;96189.84;5051705;28;20041;-76
2022/09/07 04:16:13;;;;;;;20.00;4.82;;;;;;;17.49;83.99;96183.75;5051504;28;20044;-76
2022/09/07 04:18:40;;;;;;;25.98;5.40;;;;;;;17.51;83.77;96186.13;5051742;28;20407;-75
2022/09/07 04:21:07;;;;;;;21.63;4.40;;;;;;;17.59;83.83;96182.31;5051357;28;20044;-74
2022/09/07 04:23:33;;;;;;;20.98;4.20;;;;;;;17.65;83.81;96189.13;5035957;28;20045;-75
2022/09/07 04:26:01;;;;;;;16.27;4.50;;;;;;;17.59;83.92;96190.56;5038100;28;20119;-75
2022/09/07 04:28:28;;;;;;;27.30;5.10;;;;;;;17.61;83.78;96185.50;5047696;28;20503;-74
2022/09/07 04:30:54;;;;;;;19.23;4.18;;;;;;;17.66;83.67;96182.44;5051459;28;20527;-74
2022/09/07 04:33:21;;;;;;;13.52;3.80;;;;;;;17.63;84.14;96183.16;5050964;28;20051;-74
2022/09/07 04:35:47;;;;;;;22.10;4.65;;;;;;;17.69;83.80;96189.97;5051671;28;20094;-74
2022/09/07 04:38:15;;;;;;;19.23;4.90;;;;;;;17.57;84.21;96184.66;5051137;28;20041;-74
2022/09/07 04:40:42;;;;;;;19.17;5.00;;;;;;;17.51;84.40;96186.13;5051381;28;20051;-75
2022/09/07 04:43:11;;;;;;;21.92;5.22;;;;;;;17.55;84.68;96186.97;5050440;28;20111;-77
2022/09/07 04:45:39;;;;;;;20.45;5.20;;;;;;;17.54;84.14;96194.44;5051159;28;20052;-77
2022/09/07 04:48:05;;;;;;;23.27;4.88;;;;;;;17.62;83.92;96198.09;5050510;28;20049;-72
2022/09/07 04:50:32;;;;;;;15.20;4.32;;;;;;;17.65;83.54;96191.88;5051115;28;20045;-75
2022/09/07 04:52:59;;;;;;;21.92;5.22;;;;;;;17.60;83.36;96197.69;5040045;28;20056;-74
2022/09/07 04:55:25;;;;;;;24.38;5.43;;;;;;;17.58;83.57;96184.28;5031974;28;20045;-75
2022/09/07 04:57:51;;;;;;;14.85;4.20;;;;;;;17.70;83.41;96184.09;5050993;28;20048;-75
2022/09/07 05:00:20;;;;;;;17.92;4.97;;;;;;;17.71;83.40;96193.16;5050604;28;20503;-77
2022/09/07 05:02:46;;;;;;;22.02;4.80;;;;;;;17.52;83.47;96176.69;5050800;28;20045;-74
2022/09/07 05:05:13;;;;;;;21.38;4.75;;;;;;;17.64;83.18;96187.50;5050193;28;20048;-73
2022/09/07 05:07:40;;;;;;;22.45;5.40;;;;;;;17.61;82.99;96177.25;5050728;28;20052;-77
2022/09/07 05:10:06;;;;;;;17.73;4.38;;;;;;;17.61;83.05;96185.50;5050388;28;20052;-76
2022/09/07 05:12:33;;;;;;;21.33;5.07;;;;;;;17.63;82.74;96183.16;5050504;28;20054;-76
2022/09/07 05:15:00;;;;;;;18.23;4.75;;;;;;;17.44;83.90;96190.34;5050543;28;20052;-75
2022/09/07 05:17:29;;;;;;;13.95;4.05;;;;;;;17.59;83.12;96194.16;5050405;28;20116;-74
2022/09/07 05:19:56;;;;;;;13.93;4.05;;;;;;;17.57;82.81;96198.41;5050649;28;20124;-74
2022/09/07 05:22:23;;;;;;;16.70;3.85;;;;;;;17.61;82.78;96205.56;5043920;28;20100;-74
2022/09/07 05:24:50;;;;;;;16.55;4.10;;;;;;;17.68;83.22;96213.94;5030632;28;20052;-74
2022/09/07 05:27:17;;;;;;;22.48;4.50;;;;;;;17.68;83.37;96205.69;5046897;28;20051;-76
2022/09/07 05:29:43;;;;;;;23.33;5.15;;;;;;;17.70;83.14;96213.59;5050464;28;20044;-75
2022/09/07 05:32:10;;;;;;;27.85;5.63;;;;;;;17.79;83.04;96211.41;5049986;28;20462;-75
2022/09/07 05:34:37;;;;;;;20.25;4.93;;;;;;;17.83;82.21;96222.50;5050272;28;20048;-75
2022/09/07 05:37:04;;;;;;;17.60;4.28;;;;;;;17.81;82.19;96211.84;5049856;28;20136;-75
2022/09/07 05:39:30;;;;;;;21.70;4.70;;;;;;;17.86;82.24;96211.53;5049657;28;20415;-75
2022/09/07 05:41:57;;;;;;;16.38;3.88;;;;;;;17.95;82.49;96217.56;5050195;28;20045;-75
2022/09/07 05:44:24;;;;;;;17.70;4.00;;;;;;;18.05;82.18;96220.88;5049740;28;20519;-78
2022/09/07 05:46:51;;;;;;;20.48;4.10;;;;;;;18.04;81.83;96222.03;5050288;28;20509;-79
2022/09/07 05:49:18;;;;;;;20.08;4.70;;;;;;;18.02;81.34;96227.16;5049335;28;20072;-79
2022/09/07 05:51:47;;;;;;;24.75;4.85;;;;;;;18.09;80.66;96227.25;5049371;28;20048;-79
2022/09/07 05:54:13;;;;;;;20.58;4.40;;;;;;;18.15;80.69;96234.81;5029873;28;20046;-79
2022/09/07 05:56:40;;;;;;;15.68;4.13;;;;;;;18.18;80.50;96236.84;5041861;28;20033;-78
2022/09/07 05:59:07;;;;;;;14.63;3.60;;;;;;;18.23;80.64;96244.81;5049694;28;20041;-78
2022/09/07 06:01:34;;;;;;;17.58;4.10;;;;;;;18.32;81.01;96249.25;5049634;28;20041;-78
2022/09/07 06:04:01;;;;;;;18.88;4.30;;;;;;;18.26;80.28;96244.03;5049758;28;20495;-78
2022/09/07 06:06:28;;;;;;;19.85;4.40;;;;;;;18.28;79.95;96249.22;5049580;28;20052;-78
2022/09/07 06:08:57;;;;;;;13.57;3.35;;;;;;;18.31;79.71;96251.22;5049834;28;20041;-79
2022/09/07 06:11:25;;;;;;;15.40;3.80;;;;;;;18.31;79.87;96256.72;5049402;28;20072;-79
2022/09/07 06:13:52;;;;;;;27.58;4.45;;;;;;;18.44;80.38;96255.34;5049813;28;20048;-79
2022/09/07 06:16:19;;;;;;;13.93;3.95;;;;;;;18.47;79.91;96264.84;5049956;28;20045;-79
2022/09/07 06:18:47;;;;;;;16.90;3.95;;;;;;;18.52;80.35;96276.34;5050332;28;20091;-79
2022/09/07 06:21:16;;;;;;;19.13;4.68;;;;;;;18.56;81.89;96289.41;5050269;28;20126;-79
2022/09/07 06:23:43;;;;;;;16.40;4.60;;;;;;;18.60;82.54;96290.25;5033345;28;20053;-80
2022/09/07 06:26:11;;;;;;;23.17;4.55;;;;;;;18.64;83.22;96291.09;5037819;28;20507;-79
2022/09/07 06:28:40;;;;;;;15.27;3.70;;;;;;;18.48;83.18;96289.31;5051139;28;20060;-78
2022/09/07 06:31:08;;;;;;;14.77;3.72;;;;;;;18.51;83.31;96287.75;5050424;28;20520;-80
2022/09/07 06:33:35;;;;;;;18.33;3.80;;;;;;;18.34;82.62;96299.31;5049121;28;20048;-80
2022/09/07 06:36:04;;;;;;;17.67;3.58;;;;;;;18.12;84.04;96295.41;5050292;28;20071;-79
2022/09/07 06:38:31;;;;;;;22.38;4.47;;;;;;;18.13;84.86;96303.31;5049783;28;20510;-78
2022/09/07 06:41:00;;;;;;;19.30;3.70;;;;;;;18.02;85.27;96294.06;5049593;28;20048;-77
2022/09/07 06:43:28;;;;;;;16.48;3.60;;;;;;;18.03;85.76;96289.34;5048919;28;20056;-78
2022/09/07 06:45:55;;;;;;;18.40;3.80;;;;;;;17.93;87.08;96280.53;5049495;28;20049;-77
2022/09/07 06:48:22;;;;;;;24.73;4.68;;;;;;;17.98;86.76;96280.22;5048950;28;20414;-77
2022/09/07 06:50:55;;;;;;;17.15;3.88;;;;;;;18.09;87.52;96287.88;5049498;28;20403;-77
2022/09/07 06:53:22;;;;;;;16.55;3.90;;;;;;;18.10;87.87;96278.44;5034888;28;20401;-77
2022/09/07 06:55:49;;;;;;;21.52;4.15;;;;;;;18.08;89.02;96272.50;5034398;28;20045;-77
2022/09/07 06:58:15;;;;;;;21.95;4.25;;;;;;;18.18;88.93;96266.38;5048963;28;20049;-77
2022/09/07 07:00:43;;;;;;;16.92;4.00;;;;;;;18.20;88.52;96273.09;5049469;28;20542;-76
2022/09/07 07:03:10;;;;;;;35.35;5.93;;;;;;;18.13;86.79;96278.50;5047674;28;20044;-74
2022/09/07 07:05:36;;;;;;;15.57;3.55;;;;;;;18.14;86.81;96265.50;5044311;28;20041;-75
2022/09/07 07:08:03;;;;;;;20.20;4.05;;;;;;;18.05;88.99;96263.00;5047888;28;20510;-76
2022/09/07 07:10:29;;;;;;;27.60;4.95;;;;;;;18.08;89.46;96270.53;5049086;28;20044;-73
2022/09/07 07:12:56;;;;;;;22.40;4.32;;;;;;;18.08;89.58;96272.50;5050713;28;20048;-74
2022/09/07 07:15:24;;;;;;;18.45;3.90;;;;;;;18.15;90.69;96275.38;5052471;28;20635;-75
2022/09/07 07:17:52;;;;;;;14.40;3.45;;;;;;;18.21;90.22;96276.63;5053069;28;20523;-73
2022/09/07 07:20:18;;;;;;;15.88;4.25;;;;;;;18.20;89.69;96273.09;5052579;28;20051;-75
2022/09/07 07:22:49;;;;;;;16.20;4.07;;;;;;;18.30;89.69;96281.91;5043258;28;20045;-77
2022/09/07 07:25:16;;;;;;;15.30;3.97;;;;;;;18.41;89.25;96271.84;5032513;28;20059;-77
2022/09/07 07:27:44;;;;;;;12.05;3.45;;;;;;;18.59;89.38;96283.16;5053021;28;20040;-79
2022/09/07 07:30:11;;;;;;;17.88;4.15;;;;;;;18.92;89.41;96277.72;5052184;28;20045;-77
2022/09/07 07:32:39;;;;;;;13.10;3.38;;;;;;;19.47;86.49;96283.56;5053456;28;20049;-79
2022/09/07 07:35:08;;;;;;;20.25;4.07;;;;;;;19.65;86.70;96288.50;5052892;28;20049;-77
2022/09/07 07:37:36;;;;;;;15.60;3.17;;;;;;;20.07;83.14;96293.66;5052690;28;20124;-76
2022/09/07 07:40:03;;;;;;;17.08;3.72;;;;;;;20.57;78.98;96299.63;5052161;28;20072;-80
2022/09/07 07:42:29;;;;;;;16.35;3.45;;;;;;;20.84;74.34;96303.75;5052601;28;20132;-77
2022/09/07 07:44:56;;;;;;;15.18;3.63;;;;;;;20.91;75.90;96305.78;5052119;28;20389;-74
2022/09/07 07:47:22;;;;;;;12.95;3.10;;;;;;;20.90;73.89;96312.50;5052204;28;20044;-79
2022/09/07 07:49:49;;;;;;;14.82;3.15;;;;;;;21.15;74.34;96311.84;5052326;28;20609;-75
2022/09/07 07:52:16;;;;;;;14.80;3.17;;;;;;;21.37;73.26;96308.00;5046579;28;20053;-74
2022/09/07 07:54:43;;;;;;;16.15;3.22;;;;;;;21.52;71.60;96304.13;5032260;28;20500;-74
2022/09/07 07:57:10;;;;;;;20.55;3.78;;;;;;;21.62;71.54;96306.13;5047883;28;20077;-75
2022/09/07 07:59:37;;;;;;;19.27;3.95;;;;;;;21.79;70.82;96307.38;5052160;28;20060;-77
2022/09/07 08:02:05;;;;;;;15.70;3.10;;;;;;;21.80;70.38;96291.53;5051875;28;20128;-76
2022/09/07 08:04:32;;;;;;;21.20;4.20;;;;;;;21.81;69.54;96293.09;5051904;28;20487;-76
2022/09/07 08:06:58;;;;;;;16.15;2.92;;;;;;;21.78;69.73;96293.91;5052113;28;20045;-76
2022/09/07 08:09:26;;;;;;;33.50;4.35;;;;;;;21.69;71.24;96296.25;5051515;28;20647;-75
2022/09/07 08:11:53;;;;;;;20.60;3.67;;;;;;;21.82;73.15;96294.69;5051956;28;20056;-75
2022/09/07 08:14:21;;;;;;;17.80;3.28;;;;;;;21.89;69.15;96289.19;5051332;28;20068;-75
2022/09/07 08:16:47;;;;;;;20.38;3.58;;;;;;;22.18;71.82;96284.47;5051921;28;20064;-76
2022/09/07 08:19:14;;;;;;;18.88;3.20;;;;;;;22.14;68.57;96295.59;5051360;28;20136;-78
2022/09/07 08:21:40;;;;;;;19.85;3.45;;;;;;;22.27;67.29;96286.88;5051470;28;20049;-77
2022/09/07 08:24:07;;;;;;;17.35;3.17;;;;;;;22.29;67.94;96287.25;5030928;28;20057;-76
2022/09/07 08:26:35;;;;;;;15.30;2.85;;;;;;;21.82;66.50;96289.97;5042776;28;20044;-75
2022/09/07 08:29:01;;;;;;;32.28;4.85;;;;;;;21.94;69.50;96291.56;5051224;28;20049;-76
2022/09/07 08:31:28;;;;;;;22.85;3.97;;;;;;;22.14;68.14;96278.16;5051696;28;20045;-78
2022/09/07 08:33:54;;;;;;;17.17;2.65;;;;;;;22.09;66.66;96282.06;5051855;28;20052;-78
2022/09/07 08:36:21;;;;;;;18.35;3.25;;;;;;;22.32;66.63;96283.69;5051108;28;20049;-78
2022/09/07 08:38:48;;;;;;;18.05;3.30;;;;;;;22.50;65.26;96283.69;5051680;28;20049;-77
2022/09/07 08:41:42;;;;;;;20.27;3.58;;;;;;;22.50;64.54;96287.28;5050851;28;20057;-76
2022/09/07 08:44:13;;;;;;;15.48;3.03;;;;;;;22.39;65.02;96278.13;5050861;28;20052;-76
2022/09/07 08:46:45;;;;;;;21.17;3.88;;;;;;;22.32;65.02;96278.94;5051410;28;20056;-76
2022/09/07 08:49:17;;;;;;;14.85;3.08;;;;;;;22.47;63.66;96281.72;5050811;28;20503;-75
2022/09/07 08:51:48;;;;;;;19.20;3.53;;;;;;;22.52;64.45;96282.09;5050601;28;20051;-75
2022/09/07 08:54:16;;;;;;;15.27;3.40;;;;;;;22.48;64.18;96286.84;5030821;28;20046;-75
2022/09/07 08:56:48;;;;;;;17.77;3.10;;;;;;;22.74;65.72;96276.53;5043362;28;20064;-78
2022/09/07 08:59:19;;;;;;;19.52;3.63;;;;;;;22.64;62.54;96287.25;5052607;28;20079;-78
2022/09/07 09:01:45;;;;;;;20.45;3.65;;;;;;;22.85;64.50;96288.41;5051517;28;20053;-76
2022/09/07 09:04:20;;;;;;;20.35;3.60;;;;;;;23.20;64.85;96286.75;5050829;28;20045;-78
2022/09/07 09:07:00;;;;;;;17.15;3.30;;;;;;;23.29;61.36;96287.94;5051096;28;20053;-74
2022/09/07 09:09:36;;;;;;;20.02;3.55;;;;;;;23.33;61.30;96282.34;5050579;28;20499;-76
2022/09/07 09:12:15;;;;;;;21.60;3.78;;;;;;;23.21;59.61;96293.91;5050677;28;20045;-75
2022/09/07 09:14:55;;;;;;;17.05;3.25;;;;;;;23.40;61.34;96285.09;5051040;28;20056;-77
2022/09/07 09:17:28;;;;;;;20.90;3.63;;;;;;;23.65;59.71;96273.91;5050379;28;20057;-78
2022/09/07 09:20:06;;;;;;;15.75;2.85;;;;;;;23.69;58.06;96275.44;5050747;28;20037;-75
2022/09/07 09:22:34;;;;;;;22.50;3.90;;;;;;;23.60;57.77;96282.63;5042858;28;20095;-77
2022/09/07 09:25:12;;;;;;;24.90;4.10;;;;;;;23.51;59.73;96271.94;5030618;28;20045;-75
2022/09/07 09:27:40;;;;;;;21.20;3.97;;;;;;;23.73;58.21;96269.09;5030627;28;20049;-75
2022/09/07 09:30:12;;;;;;;19.90;3.80;;;;;;;23.95;58.00;96270.53;5030141;28;20057;-76
2022/09/07 09:32:40;;;;;;;17.20;3.47;;;;;;;23.89;57.10;96274.94;5030759;28;20108;-76
2022/09/07 09:35:14;;;;;;;21.65;4.07;;;;;;;23.94;57.49;96264.19;5030241;28;20413;-76
2022/09/07 09:37:41;;;;;;;20.13;3.72;;;;;;;24.12;58.26;96257.72;5030655;28;20045;-76
2022/09/07 09:40:19;;;;;;;22.75;3.70;;;;;;;24.25;57.22;96255.22;5029976;28;20408;-76
2022/09/07 09:42:47;;;;;;;18.33;3.35;;;;;;;24.08;57.33;96266.06;5030356;28;20048;-76
2022/09/07 09:45:19;;;;;;;23.40;3.85;;;;;;;24.36;57.60;96264.28;5030112;28;20102;-77
2022/09/07 09:47:49;;;;;;;22.53;3.87;;;;;;;24.47;56.59;96259.44;5030306;28;20052;-77
2022/09/07 09:50:21;;;;;;;16.70;2.80;;;;;;;24.27;55.05;96252.81;5031136;28;20041;-79
2022/09/07 09:52:48;;;;;;;21.88;3.50;;;;;;;24.51;56.06;96249.06;5031766;28;20456;-79
2022/09/07 09:55:24;;;;;;;20.85;4.07;;;;;;;24.47;55.44;96253.84;5030502;28;20049;-80
2022/09/07 09:57:57;;;;;;;14.63;2.72;;;;;;;24.70;55.02;96251.25;5051404;28;20040;-76
2022/09/07 10:00:26;;;;;;;23.35;3.33;;;;;;;24.74;54.52;96242.84;5049833;28;20048;-77
2022/09/07 10:03:06;;;;;;;14.00;2.80;;;;;;;24.88;54.49;96247.50;5050218;28;20073;-78
2022/09/07 10:05:36;;;;;;;12.23;2.63;;;;;;;24.98;53.50;96241.03;5051574;28;20044;-83
2022/09/07 10:08:06;;;;;;;14.55;2.65;;;;;;;25.01;55.65;96245.78;5053956;28;20072;-78
2022/09/07 10:10:32;;;;;;;17.08;3.13;;;;;;;25.10;52.10;96242.50;5051594;28;20045;-75
2022/09/07 10:13:00;;;;;;;23.42;3.55;;;;;;;25.21;54.18;96238.41;5049565;28;20049;-76
2022/09/07 10:15:34;;;;;;;18.52;3.22;;;;;;;25.34;51.43;96240.63;5049601;28;20033;-75
2022/09/07 10:18:03;;;;;;;16.02;2.95;;;;;;;25.44;52.64;96248.06;5049840;28;20049;-76
2022/09/07 10:20:34;;;;;;;15.13;2.92;;;;;;;25.46;52.85;96237.28;5049571;28;20060;-75
2022/09/07 10:23:02;;;;;;;17.77;2.85;;;;;;;25.62;52.64;96234.66;5038298;28;20535;-76
2022/09/07 10:25:31;;;;;;;18.77;3.10;;;;;;;25.56;51.97;96238.34;5031531;28;20048;-76
2022/09/07 10:28:14;;;;;;;19.75;3.38;;;;;;;25.61;52.64;96232.31;5049772;28;20181;-76
2022/09/07 10:30:52;;;;;;;21.30;3.53;;;;;;;25.67;51.88;96230.63;5049555;28;20119;-75
2022/09/07 10:33:26;;;;;;;12.18;2.85;;;;;;;25.87;52.26;96234.34;5049345;28;20037;-74
2022/09/07 10:35:59;;;;;;;13.00;2.72;;;;;;;25.94;50.79;96227.88;5049931;28;20438;-77
2022/09/07 10:38:30;;;;;;;19.55;3.40;;;;;;;25.87;52.33;96225.19;5049189;28;20052;-75
2022/09/07 10:41:01;;;;;;;23.85;3.45;;;;;;;25.65;52.06;96222.69;5049509;28;20067;-75
2022/09/07 10:43:42;;;;;;;14.48;2.63;;;;;;;25.78;52.02;96225.72;5049378;28;20037;-78
2022/09/07 10:46:22;;;;;;;22.38;3.35;;;;;;;25.69;52.52;96219.88;5050003;28;20069;-77
2022/09/07 10:49:03;;;;;;;14.75;2.75;;;;;;;25.39;52.38;96220.66;5053762;28;20045;-75
2022/09/07 10:51:36;;;;;;;17.58;3.05;;;;;;;25.49;52.79;96222.53;5053199;28;20040;-75
2022/09/07 10:54:14;;;;;;;22.77;3.88;;;;;;;25.29;53.04;96216.00;5051911;28;20077;-75
2022/09/07 10:56:50;;;;;;;16.33;2.67;;;;;;;25.22;54.77;96206.53;5053442;28;20045;-77
2022/09/07 10:59:31;;;;;;;16.95;2.95;;;;;;;25.11;54.51;96199.50;5053024;28;20049;-75
2022/09/07 11:02:09;;;;;;;15.25;3.03;;;;;;;25.07;53.48;96205.13;5053448;28;20052;-79
2022/09/07 11:04:59;;;;;;;17.33;2.95;;;;;;;25.07;54.01;96205.13;5053514;28;20040;-75
2022/09/07 11:07:42;;;;;;;18.92;3.22;;;;;;;25.33;53.03;96194.47;5052822;28;20052;-75
2022/09/07 11:10:18;;;;;;;18.38;2.70;;;;;;;25.52;50.86;96191.78;5052954;28;20091;-77
2022/09/07 11:12:44;;;;;;;14.43;2.90;;;;;;;25.45;52.86;96185.53;5052971;28;20045;-75
2022/09/07 11:15:22;;;;;;;16.65;3.10;;;;;;;25.52;52.46;96177.06;5052817;28;20073;-74
2022/09/07 11:17:53;;;;;;;13.77;2.53;;;;;;;25.65;52.57;96186.44;5053100;28;20045;-75
2022/09/07 11:20:27;;;;;;;13.05;2.70;;;;;;;25.75;51.30;96177.16;5052677;28;20049;-75
2022/09/07 11:23:02;;;;;;;18.88;3.38;;;;;;;25.69;53.61;96173.25;5052395;28;20053;-76
2022/09/07 11:25:35;;;;;;;26.27;3.40;;;;;;;25.33;51.38;96172.16;5052645;28;20138;-75
2022/09/07 11:28:08;;;;;;;14.18;2.67;;;;;;;25.55;52.91;96172.66;5052534;28;20057;-75
2022/09/07 11:30:41;;;;;;;18.85;3.42;;;;;;;25.67;50.88;96175.66;5053014;28;20499;-76
2022/09/07 11:33:15;;;;;;;18.95;3.13;;;;;;;25.80;51.49;96172.31;5052274;28;20049;-75
2022/09/07 11:35:50;;;;;;;18.35;3.13;;;;;;;25.80;50.62;96161.94;5052866;28;20049;-75
2022/09/07 11:38:25;;;;;;;19.20;3.30;;;;;;;25.94;51.33;96152.53;5052285;28;20049;-75